Flight Track Log - Related Links

Times and Time Zones

All times are in EDT time to prevent confusion due to time zone crossing. See the PT-MXB flight status page for this flight to view local times or setup timezone preferences in your user account.

Time Position Orientation Groundspeed Altitude Reporting Facility
EDT Latitude Longitude Course Direction KTS MPH feet Rate Location/Type
Sat 10:58:32 AM -28.4397 -51.3083 222° Southwest  Level Estimated
Sat 10:59:32 AM -28.5115 -51.3821 222° Southwest  Level Estimated
Sat 11:00:32 AM -28.5832 -51.4560 222° Southwest  Level Estimated
Sat 11:01:32 AM -28.6550 -51.5300 222° Southwest  Level Estimated
Sat 11:02:32 AM -28.7267 -51.6041 222° Southwest  Level Estimated
Sat 11:03:32 AM -28.7983 -51.6783 222° Southwest  Level Estimated
Sat 11:04:32 AM -28.8699 -51.7527 222° Southwest  Level Estimated
Sat 11:05:32 AM -28.9415 -51.8271 222° Southwest  Level Estimated
Sat 11:06:32 AM -29.0130 -51.9016 222° Southwest  Level Estimated
Sat 11:07:32 AM -29.0845 -51.9762 222° Southwest  Level Estimated
Sat 11:08:32 AM -29.1560 -52.0509 222° Southwest  Level Estimated
Sat 11:09:32 AM -29.2274 -52.1257 222° Southwest  Level Estimated
Sat 11:10:32 AM -29.2987 -52.2007 223° Southwest  Level Estimated
Sat 11:11:32 AM -29.3701 -52.2757 223° Southwest  Level Estimated
Sat 11:12:32 AM -29.4413 -52.3508 223° Southwest  Level Estimated
Sat 11:13:32 AM -29.5126 -52.4261 223° Southwest  Level Estimated
Sat 11:14:32 AM -29.5838 -52.5014 223° Southwest  Level Estimated
Sat 11:15:32 AM -29.6549 -52.5769 223° Southwest  Level Estimated
Sat 11:16:32 AM -29.7260 -52.6525 223° Southwest  Level Estimated
Sat 11:17:32 AM -29.7971 -52.7281 223° Southwest  Level Estimated
Sat 11:18:32 AM -29.8681 -52.8039 223° Southwest  Level Estimated
Sat 11:19:32 AM -29.9391 -52.8798 223° Southwest  Level Estimated
Sat 11:20:32 AM -30.0100 -52.9558 223° Southwest  Level Estimated
Sat 11:21:32 AM -30.0809 -53.0319 223° Southwest  Level Estimated
Sat 11:22:32 AM -30.1518 -53.1081 223° Southwest  Level Estimated
Sat 11:23:32 AM -30.2226 -53.1844 223° Southwest  Level Estimated
Sat 11:24:32 AM -30.2934 -53.2608 223° Southwest  Level Estimated
Sat 11:25:32 AM -30.3641 -53.3374 223° Southwest  Level Estimated
Sat 11:26:32 AM -30.4347 -53.4140 223° Southwest  Level Estimated
Sat 11:27:32 AM -30.5054 -53.4908 223° Southwest  Level Estimated
Sat 11:28:32 AM -30.5760 -53.5677 223° Southwest  Level Estimated
Sat 11:29:32 AM -30.6465 -53.6447 223° Southwest  Level Estimated
Sat 11:30:32 AM -30.7170 -53.7218 223° Southwest  Level Estimated
Sat 11:31:32 AM -30.7874 -53.7990 223° Southwest  Level Estimated
Sat 11:32:32 AM -30.8578 -53.8763 223° Southwest  Level Estimated
Sat 11:33:32 AM -30.9282 -53.9537 223° Southwest  Level Estimated
Sat 11:34:32 AM -30.9985 -54.0313 223° Southwest  Level Estimated
Sat 11:35:32 AM -31.0688 -54.1090 223° Southwest  Level Estimated
Sat 11:36:32 AM -31.1390 -54.1867 224° Southwest  Level Estimated
Sat 11:37:32 AM -31.2091 -54.2646 224° Southwest  Level Estimated
Sat 11:38:32 AM -31.2793 -54.3426 224° Southwest  Level Estimated
Sat 11:39:32 AM -31.3493 -54.4208 224° Southwest  Level Estimated
Sat 11:40:32 AM -31.4194 -54.4990 224° Southwest  Level Estimated
Sat 11:41:32 AM -31.4893 -54.5774 224° Southwest  Level Estimated
Sat 11:42:32 AM -31.5593 -54.6558 224° Southwest  Level Estimated
Sat 11:43:32 AM -31.6292 -54.7345 224° Southwest  Level Estimated
Sat 11:44:32 AM -31.6990 -54.8132 224° Southwest  Level Estimated
Sat 11:45:32 AM -31.7688 -54.8920 224° Southwest  Level Estimated
Sat 11:46:32 AM -31.8385 -54.9710 224° Southwest  Level Estimated
Sat 11:47:32 AM -31.9082 -55.0500 224° Southwest  Level Estimated
Sat 11:48:32 AM -31.9778 -55.1292 224° Southwest  Level Estimated
Sat 11:49:32 AM -32.0474 -55.2085 224° Southwest  Level Estimated
Sat 11:50:32 AM -32.1170 -55.2879 224° Southwest  Level Estimated
Sat 11:51:32 AM -32.1865 -55.3675 224° Southwest  Level Estimated
Sat 11:52:32 AM -32.2559 -55.4472 224° Southwest  Level Estimated
Sat 11:53:32 AM -32.3253 -55.5270 224° Southwest  Level Estimated
Sat 11:54:32 AM -32.3946 -55.6069 224° Southwest  Level Estimated
Sat 11:55:32 AM -32.4639 -55.6869 224° Southwest  Level Estimated
Sat 11:56:32 AM -32.5332 -55.7671 224° Southwest  Level Estimated
Sat 11:57:32 AM -32.6024 -55.8474 224° Southwest  Level Estimated
Sat 11:58:32 AM -32.6715 -55.9278 224° Southwest  Level Estimated
Sat 11:59:32 AM -32.7406 -56.0083 224° Southwest  Level Estimated
Sat 12:00:32 PM -32.8096 -56.0890 225° Southwest  Level Estimated
Sat 12:01:32 PM -32.8786 -56.1698 225° Southwest  Level Estimated
Sat 12:02:32 PM -32.9475 -56.2507 225° Southwest  Level Estimated
Sat 12:03:32 PM -33.0164 -56.3317 225° Southwest  Level Estimated
Sat 12:04:32 PM -33.0852 -56.4129 225° Southwest  Level Estimated
Sat 12:05:32 PM -33.1540 -56.4942 225° Southwest  Level Estimated
Sat 12:06:32 PM -33.2227 -56.5756 225° Southwest  Level Estimated
Sat 12:07:32 PM -33.2914 -56.6572 225° Southwest  Level Estimated
Sat 12:08:32 PM -33.3600 -56.7388 225° Southwest  Level Estimated
Sat 12:09:32 PM -33.4286 -56.8207 225° Southwest  Level Estimated
Sat 12:10:32 PM -33.4971 -56.9026 225° Southwest  Level Estimated
Sat 12:11:32 PM -33.5655 -56.9847 225° Southwest  Level Estimated
Sat 12:12:32 PM -33.6339 -57.0669 225° Southwest  Level Estimated
Sat 12:13:32 PM -33.7023 -57.1492 225° Southwest  Level Estimated
Sat 12:14:32 PM -33.7706 -57.2317 225° Southwest  Level Estimated
Sat 12:15:32 PM -33.8388 -57.3142 225° Southwest  Level Estimated
Sat 12:16:32 PM -33.9070 -57.3970 225° Southwest  Level Estimated
Sat 12:17:32 PM -33.9751 -57.4798 225° Southwest  Level Estimated
Sat 12:18:32 PM -34.0432 -57.5628 225° Southwest  Level Estimated
Sat 12:19:32 PM -34.1112 -57.6459 225° Southwest  Level Estimated
Sat 12:20:32 PM -34.1792 -57.7292 225° Southwest  Level Estimated
Sat 12:21:32 PM -34.2471 -57.8126 225° Southwest  Level Estimated
Sat 12:22:32 PM -34.3149 -57.8961 226° Southwest  Level Estimated
Sat 12:23:32 PM -34.3827 -57.9798 226° Southwest  Level Estimated
Sat 12:24:32 PM -34.4504 -58.0635 226° Southwest  Level Estimated
Sat 12:25:32 PM -34.5181 -58.1475 226° Southwest  Level Estimated
Sat 12:26:32 PM -34.5857 -58.2315 226° Southwest  Level Estimated
Sat 12:27:32 PM -34.6533 -58.3157 226° Southwest  Level Estimated
Sat 12:28:32 PM -34.7208 -58.4001 226° Southwest  Level Estimated
Sat 12:29:32 PM -34.7882 -58.4846 226° Southwest  Level Estimated
Sat 12:30:32 PM -34.8556 -58.5692 46° Northeast  Level Estimated
Sat 12:31:32 PM -34.7882 -58.4846 226° Southwest  Level Estimated
Sat 12:32:32 PM -34.8556 -58.5692 46° Northeast  Level Estimated
Sat 12:33:32 PM -34.7882 -58.4846 226° Southwest  Level Estimated
Sat 12:34:32 PM -34.8556 -58.5692 46° Northeast  Level Estimated
Sat 12:35:32 PM -34.7882 -58.4846 226° Southwest  Level Estimated
Sat 12:36:32 PM -34.8556 -58.5692 46° Northeast  Level Estimated
Sat 12:37:32 PM -34.7882 -58.4846 226° Southwest  Level Estimated
Sat 12:38:32 PM -34.8556 -58.5692 46° Northeast  Level Estimated
Sat 12:39:32 PM -34.7882 -58.4846 226° Southwest  Level Estimated
Sat 12:40:32 PM -34.8556 -58.5692 46° Northeast  Level Estimated
Sat 12:41:32 PM -34.7882 -58.4846 226° Southwest  Level Estimated
Sat 12:42:32 PM -34.8556 -58.5692 46° Northeast  Level Estimated
Sat 12:43:32 PM -34.7882 -58.4846 226° Southwest  Level Estimated
Sat 12:44:32 PM -34.8556 -58.5692 46° Northeast  Level Estimated
Sat 12:45:32 PM -34.7882 -58.4846 46° Northeast  Level Estimated

Login

Don't have an account? Register now (free) for customized features, flight alerts, and more!